sensor_id;sensor_type;location;lat;lon;timestamp;pressure;altitude;pressure_sealevel;temperature;humidity
48630;BME280;34426;52.180;4.462;2022-07-29T00:01:02;150056.84;;;16.41;79.48
48630;BME280;34426;52.180;4.462;2022-07-29T00:03:29;150066.84;;;16.45;79.71
48630;BME280;34426;52.180;4.462;2022-07-29T00:05:56;150049.31;;;16.38;79.29
48630;BME280;34426;52.180;4.462;2022-07-29T00:08:24;150054.31;;;16.40;79.72
48630;BME280;34426;52.180;4.462;2022-07-29T00:10:51;150054.31;;;16.40;79.73
48630;BME280;34426;52.180;4.462;2022-07-29T00:13:20;150049.31;;;16.38;78.80
48630;BME280;34426;52.180;4.462;2022-07-29T00:15:48;150061.84;;;16.43;78.57
48630;BME280;34426;52.180;4.462;2022-07-29T00:18:15;150064.38;;;16.44;79.29
48630;BME280;34426;52.180;4.462;2022-07-29T00:20:44;150056.84;;;16.41;79.78
48630;BME280;34426;52.180;4.462;2022-07-29T00:23:11;150051.84;;;16.39;79.90
48630;BME280;34426;52.180;4.462;2022-07-29T00:25:38;150036.81;;;16.32;79.76
48630;BME280;34426;52.180;4.462;2022-07-29T00:28:06;150046.78;;;16.37;79.67
48630;BME280;34426;52.180;4.462;2022-07-29T00:30:35;150040.56;;;16.34;79.54
48630;BME280;34426;52.180;4.462;2022-07-29T00:33:03;150001.78;;;16.18;80.34
48630;BME280;34426;52.180;4.462;2022-07-29T00:35:30;150019.28;;;16.25;80.76
48630;BME280;34426;52.180;4.462;2022-07-29T00:37:58;149996.78;;;16.16;80.64
48630;BME280;34426;52.180;4.462;2022-07-29T00:40:25;150016.75;;;16.24;80.85
48630;BME280;34426;52.180;4.462;2022-07-29T00:42:53;149989.25;;;16.13;80.97
48630;BME280;34426;52.180;4.462;2022-07-29T00:45:20;150001.78;;;16.18;80.86
48630;BME280;34426;52.180;4.462;2022-07-29T00:47:50;149996.78;;;16.16;81.25
48630;BME280;34426;52.180;4.462;2022-07-29T00:50:17;149942.94;;;15.94;81.30
48630;BME280;34426;52.180;4.462;2022-07-29T00:52:45;149959.22;;;16.01;81.53
48630;BME280;34426;52.180;4.462;2022-07-29T00:55:13;149976.72;;;16.08;81.48
48630;BME280;34426;52.180;4.462;2022-07-29T00:57:42;149982.97;;;16.10;81.76
48630;BME280;34426;52.180;4.462;2022-07-29T01:00:14;149979.22;;;16.09;81.41
48630;BME280;34426;52.180;4.462;2022-07-29T01:02:42;149960.47;;;16.01;81.28
48630;BME280;34426;52.180;4.462;2022-07-29T01:05:12;149930.44;;;15.89;81.66
48630;BME280;34426;52.180;4.462;2022-07-29T01:07:40;149957.94;;;16.00;81.39
48630;BME280;34426;52.180;4.462;2022-07-29T01:10:10;149964.22;;;16.03;81.48
48630;BME280;34426;52.180;4.462;2022-07-29T01:12:39;149954.19;;;15.99;81.48
48630;BME280;34426;52.180;4.462;2022-07-29T01:15:08;149926.66;;;15.87;80.94
48630;BME280;34426;52.180;4.462;2022-07-29T01:17:42;149944.19;;;15.94;81.53
48630;BME280;34426;52.180;4.462;2022-07-29T01:20:16;149937.94;;;15.92;81.85
48630;BME280;34426;52.180;4.462;2022-07-29T01:23:08;149944.19;;;15.94;81.53
48630;BME280;34426;52.180;4.462;2022-07-29T01:25:57;149931.66;;;15.89;81.27
48630;BME280;34426;52.180;4.462;2022-07-29T01:29:03;149925.44;;;15.87;81.83
48630;BME280;34426;52.180;4.462;2022-07-29T01:31:38;149926.66;;;15.87;82.29
48630;BME280;34426;52.180;4.462;2022-07-29T01:34:07;149924.16;;;15.86;82.22
48630;BME280;34426;52.180;4.462;2022-07-29T01:36:37;149927.91;;;15.88;82.64
48630;BME280;34426;52.180;4.462;2022-07-29T01:39:09;149905.41;;;15.79;83.36
48630;BME280;34426;52.180;4.462;2022-07-29T01:41:40;149927.91;;;15.88;83.40
48630;BME280;34426;52.180;4.462;2022-07-29T01:44:19;149920.41;;;15.85;84.03
48630;BME280;34426;52.180;4.462;2022-07-29T01:46:54;149906.63;;;15.79;84.45
48630;BME280;34426;52.180;4.462;2022-07-29T01:49:25;149900.41;;;15.76;84.54
48630;BME280;34426;52.180;4.462;2022-07-29T01:51:56;149897.88;;;15.75;84.56
48630;BME280;34426;52.180;4.462;2022-07-29T01:54:28;149907.88;;;15.80;84.44
48630;BME280;34426;52.180;4.462;2022-07-29T01:56:59;149862.81;;;15.61;84.21
48630;BME280;34426;52.180;4.462;2022-07-29T01:59:29;149906.63;;;15.79;84.22
48630;BME280;34426;52.180;4.462;2022-07-29T02:01:58;149897.88;;;15.75;84.87
48630;BME280;34426;52.180;4.462;2022-07-29T02:04:27;149876.56;;;15.67;85.12
48630;BME280;34426;52.180;4.462;2022-07-29T02:06:58;149891.59;;;15.73;85.63
48630;BME280;34426;52.180;4.462;2022-07-29T02:09:27;149890.31;;;15.72;86.43
48630;BME280;34426;52.180;4.462;2022-07-29T02:11:57;149886.56;;;15.71;86.22
48630;BME280;34426;52.180;4.462;2022-07-29T02:14:25;149854.06;;;15.57;86.60
48630;BME280;34426;52.180;4.462;2022-07-29T02:16:56;149884.09;;;15.70;86.89
48630;BME280;34426;52.180;4.462;2022-07-29T02:19:26;149861.53;;;15.61;87.15
48630;BME280;34426;52.180;4.462;2022-07-29T02:21:55;149876.56;;;15.67;87.34
48630;BME280;34426;52.180;4.462;2022-07-29T02:24:26;149876.56;;;15.67;87.66
48630;BME280;34426;52.180;4.462;2022-07-29T02:26:55;149837.78;;;15.51;88.04
48630;BME280;34426;52.180;4.462;2022-07-29T02:29:25;149861.53;;;15.61;88.18
48630;BME280;34426;52.180;4.462;2022-07-29T02:31:55;149824.00;;;15.45;88.84
48630;BME280;34426;52.180;4.462;2022-07-29T02:34:24;149826.50;;;15.46;88.79
48630;BME280;34426;52.180;4.462;2022-07-29T02:36:53;149842.78;;;15.53;88.76
48630;BME280;34426;52.180;4.462;2022-07-29T02:39:23;149790.22;;;15.31;88.67
48630;BME280;34426;52.180;4.462;2022-07-29T02:41:54;149836.50;;;15.50;89.13
48630;BME280;34426;52.180;4.462;2022-07-29T02:44:24;149836.50;;;15.50;88.97
48630;BME280;34426;52.180;4.462;2022-07-29T02:47:01;149822.75;;;15.45;89.03
48630;BME280;34426;52.180;4.462;2022-07-29T02:49:35;149811.47;;;15.40;89.26
48630;BME280;34426;52.180;4.462;2022-07-29T02:52:04;149801.50;;;15.36;89.59
48630;BME280;34426;52.180;4.462;2022-07-29T02:54:39;149795.25;;;15.33;90.09
48630;BME280;34426;52.180;4.462;2022-07-29T02:57:06;149793.97;;;15.33;90.03
48630;BME280;34426;52.180;4.462;2022-07-29T02:59:37;149787.75;;;15.30;90.21
48630;BME280;34426;52.180;4.462;2022-07-29T03:02:12;149774.00;;;15.25;90.01
48630;BME280;34426;52.180;4.462;2022-07-29T03:04:43;149782.75;;;15.28;90.00
48630;BME280;34426;52.180;4.462;2022-07-29T03:07:13;149771.47;;;15.24;90.31
48630;BME280;34426;52.180;4.462;2022-07-29T03:09:43;149743.94;;;15.12;89.93
48630;BME280;34426;52.180;4.462;2022-07-29T03:12:13;149768.94;;;15.23;90.63
48630;BME280;34426;52.180;4.462;2022-07-29T03:14:41;149756.44;;;15.17;90.57
48630;BME280;34426;52.180;4.462;2022-07-29T03:17:12;149761.47;;;15.19;90.58
48630;BME280;34426;52.180;4.462;2022-07-29T03:19:40;149751.44;;;15.15;90.95
48630;BME280;34426;52.180;4.462;2022-07-29T03:22:08;149743.94;;;15.12;91.31
48630;BME280;34426;52.180;4.462;2022-07-29T03:24:37;149738.94;;;15.10;90.64
48630;BME280;34426;52.180;4.462;2022-07-29T03:27:05;149774.00;;;15.25;90.22
48630;BME280;34426;52.180;4.462;2022-07-29T03:29:34;149771.47;;;15.24;89.89
48630;BME280;34426;52.180;4.462;2022-07-29T03:32:03;149758.97;;;15.18;90.11
48630;BME280;34426;52.180;4.462;2022-07-29T03:34:32;149763.97;;;15.20;90.66
48630;BME280;34426;52.180;4.462;2022-07-29T03:37:00;149758.97;;;15.18;90.26
48630;BME280;34426;52.180;4.462;2022-07-29T03:39:31;149750.22;;;15.15;90.45
48630;BME280;34426;52.180;4.462;2022-07-29T03:41:58;149767.72;;;15.22;90.20
48630;BME280;34426;52.180;4.462;2022-07-29T03:44:27;149779.00;;;15.27;90.10
48630;BME280;34426;52.180;4.462;2022-07-29T03:47:01;149768.94;;;15.23;90.15
48630;BME280;34426;52.180;4.462;2022-07-29T03:49:33;149772.72;;;15.24;90.14
48630;BME280;34426;52.180;4.462;2022-07-29T03:52:03;149771.47;;;15.24;90.00
48630;BME280;34426;52.180;4.462;2022-07-29T03:54:31;149770.25;;;15.23;90.32
48630;BME280;34426;52.180;4.462;2022-07-29T03:57:01;149748.97;;;15.14;90.28
48630;BME280;34426;52.180;4.462;2022-07-29T03:59:29;149735.19;;;15.09;90.76
48630;BME280;34426;52.180;4.462;2022-07-29T04:01:58;149743.94;;;15.12;90.68
48630;BME280;34426;52.180;4.462;2022-07-29T04:04:27;149785.22;;;15.29;90.31
48630;BME280;34426;52.180;4.462;2022-07-29T04:06:57;149750.22;;;15.15;90.53
48630;BME280;34426;52.180;4.462;2022-07-29T04:09:24;149762.72;;;15.20;90.67
48630;BME280;34426;52.180;4.462;2022-07-29T04:11:52;149713.94;;;15.00;90.96
48630;BME280;34426;52.180;4.462;2022-07-29T04:14:26;149711.44;;;14.99;91.14
48630;BME280;34426;52.180;4.462;2022-07-29T04:16:53;149738.94;;;15.10;91.39
48630;BME280;34426;52.180;4.462;2022-07-29T04:19:20;149722.66;;;15.03;91.76
48630;BME280;34426;52.180;4.462;2022-07-29T04:21:47;149736.47;;;15.09;91.80
48630;BME280;34426;52.180;4.462;2022-07-29T04:24:17;149728.94;;;15.06;91.29
48630;BME280;34426;52.180;4.462;2022-07-29T04:26:47;149730.19;;;15.07;91.56
48630;BME280;34426;52.180;4.462;2022-07-29T04:29:15;149751.44;;;15.15;91.58
48630;BME280;34426;52.180;4.462;2022-07-29T04:31:43;149753.97;;;15.16;91.42
48630;BME280;34426;52.180;4.462;2022-07-29T04:34:11;149730.19;;;15.07;91.79
48630;BME280;34426;52.180;4.462;2022-07-29T04:36:38;149696.41;;;14.93;93.01
48630;BME280;34426;52.180;4.462;2022-07-29T04:39:10;149710.16;;;14.98;93.29
48630;BME280;34426;52.180;4.462;2022-07-29T04:41:39;149693.91;;;14.92;93.34
48630;BME280;34426;52.180;4.462;2022-07-29T04:44:07;149697.66;;;14.93;93.12
48630;BME280;34426;52.180;4.462;2022-07-29T04:46:36;149652.66;;;14.75;93.07
48630;BME280;34426;52.180;4.462;2022-07-29T04:49:03;149702.69;;;14.95;92.70
48630;BME280;34426;52.180;4.462;2022-07-29T04:51:31;149687.66;;;14.89;92.32
48630;BME280;34426;52.180;4.462;2022-07-29T04:53:58;149720.19;;;15.02;91.68
48630;BME280;34426;52.180;4.462;2022-07-29T04:56:25;149735.19;;;15.09;92.34
48630;BME280;34426;52.180;4.462;2022-07-29T04:58:55;149748.97;;;15.14;91.69
48630;BME280;34426;52.180;4.462;2022-07-29T05:01:22;149746.44;;;15.13;91.45
48630;BME280;34426;52.180;4.462;2022-07-29T05:03:50;149696.41;;;14.93;91.35
48630;BME280;34426;52.180;4.462;2022-07-29T05:06:17;149761.47;;;15.19;90.95
48630;BME280;34426;52.180;4.462;2022-07-29T05:08:45;149783.97;;;15.29;90.26
48630;BME280;34426;52.180;4.462;2022-07-29T05:11:12;149751.44;;;15.15;90.58
48630;BME280;34426;52.180;4.462;2022-07-29T05:13:40;149772.72;;;15.24;90.89
48630;BME280;34426;52.180;4.462;2022-07-29T05:16:11;149781.47;;;15.28;91.08
48630;BME280;34426;52.180;4.462;2022-07-29T05:18:38;149783.97;;;15.29;90.87
48630;BME280;34426;52.180;4.462;2022-07-29T05:21:06;149841.56;;;15.52;89.52
48630;BME280;34426;52.180;4.462;2022-07-29T05:23:34;149792.75;;;15.32;89.22
48630;BME280;34426;52.180;4.462;2022-07-29T05:26:01;149791.50;;;15.32;89.07
48630;BME280;34426;52.180;4.462;2022-07-29T05:28:29;149852.78;;;15.57;88.87
48630;BME280;34426;52.180;4.462;2022-07-29T05:31:15;149857.78;;;15.59;88.25
48630;BME280;34426;52.180;4.462;2022-07-29T05:33:47;149872.81;;;15.65;87.47
48630;BME280;34426;52.180;4.462;2022-07-29T05:36:14;149889.06;;;15.72;87.84
48630;BME280;34426;52.180;4.462;2022-07-29T05:38:41;149904.16;;;15.78;87.24
48630;BME280;34426;52.180;4.462;2022-07-29T05:41:10;149945.41;;;15.95;86.57
48630;BME280;34426;52.180;4.462;2022-07-29T05:43:37;149945.41;;;15.95;85.81
48630;BME280;34426;52.180;4.462;2022-07-29T05:46:05;150016.75;;;16.24;83.53
48630;BME280;34426;52.180;4.462;2022-07-29T05:48:33;150049.31;;;16.38;83.87
48630;BME280;34426;52.180;4.462;2022-07-29T05:51:03;150059.31;;;16.42;83.01
48630;BME280;34426;52.180;4.462;2022-07-29T05:53:30;150066.84;;;16.45;83.22
48630;BME280;34426;52.180;4.462;2022-07-29T05:55:57;150110.69;;;16.63;82.34
48630;BME280;34426;52.180;4.462;2022-07-29T05:58:25;150080.59;;;16.50;80.42
48630;BME280;34426;52.180;4.462;2022-07-29T06:00:53;150123.22;;;16.68;80.53
48630;BME280;34426;52.180;4.462;2022-07-29T06:03:19;150126.97;;;16.69;80.75
48630;BME280;34426;52.180;4.462;2022-07-29T06:05:47;150141.97;;;16.76;80.63
48630;BME280;34426;52.180;4.462;2022-07-29T06:08:16;150154.50;;;16.81;80.82
48630;BME280;34426;52.180;4.462;2022-07-29T06:10:44;150170.81;;;16.87;79.90
48630;BME280;34426;52.180;4.462;2022-07-29T06:13:12;150162.06;;;16.84;80.08
48630;BME280;34426;52.180;4.462;2022-07-29T06:15:39;150165.81;;;16.85;79.96
48630;BME280;34426;52.180;4.462;2022-07-29T06:18:07;150167.06;;;16.86;80.58
48630;BME280;34426;52.180;4.462;2022-07-29T06:20:34;150150.72;;;16.79;81.31
48630;BME280;34426;52.180;4.462;2022-07-29T06:23:02;150155.72;;;16.81;82.17
48630;BME280;34426;52.180;4.462;2022-07-29T06:25:31;150233.44;;;17.13;82.03
48630;BME280;34426;52.180;4.462;2022-07-29T06:27:59;150274.78;;;17.30;82.10
48630;BME280;34426;52.180;4.462;2022-07-29T06:30:26;150314.84;;;17.46;81.53
48630;BME280;34426;52.180;4.462;2022-07-29T06:32:54;150353.66;;;17.62;80.19
48630;BME280;34426;52.180;4.462;2022-07-29T06:35:24;150374.94;;;17.71;82.31
48630;BME280;34426;52.180;4.462;2022-07-29T06:37:51;150359.94;;;17.65;80.04
48630;BME280;34426;52.180;4.462;2022-07-29T06:40:19;150456.47;;;18.05;79.50
48630;BME280;34426;52.180;4.462;2022-07-29T06:42:48;150477.78;;;18.13;77.24
48630;BME280;34426;52.180;4.462;2022-07-29T06:45:18;150455.22;;;18.04;76.45
48630;BME280;34426;52.180;4.462;2022-07-29T06:47:46;150482.78;;;18.15;77.15
48630;BME280;34426;52.180;4.462;2022-07-29T06:50:14;150477.78;;;18.13;77.01
48630;BME280;34426;52.180;4.462;2022-07-29T06:52:41;150462.72;;;18.07;76.26
48630;BME280;34426;52.180;4.462;2022-07-29T06:55:09;150462.72;;;18.07;76.81
48630;BME280;34426;52.180;4.462;2022-07-29T06:57:36;150489.06;;;18.18;76.53
48630;BME280;34426;52.180;4.462;2022-07-29T07:00:07;150491.53;;;18.19;77.09
48630;BME280;34426;52.180;4.462;2022-07-29T07:02:34;150476.53;;;18.13;76.60
48630;BME280;34426;52.180;4.462;2022-07-29T07:05:02;150484.03;;;18.16;77.14
48630;BME280;34426;52.180;4.462;2022-07-29T07:07:31;150469.00;;;18.10;77.83
48630;BME280;34426;52.180;4.462;2022-07-29T07:09:58;150457.72;;;18.05;78.97
48630;BME280;34426;52.180;4.462;2022-07-29T07:12:25;150428.88;;;17.93;78.82
48630;BME280;34426;52.180;4.462;2022-07-29T07:14:53;150376.25;;;17.72;80.48
48630;BME280;34426;52.180;4.462;2022-07-29T07:20:24;150391.25;;;17.78;80.80
48630;BME280;34426;52.180;4.462;2022-07-29T07:22:51;150385.00;;;17.75;81.79
48630;BME280;34426;52.180;4.462;2022-07-29T07:25:19;150333.66;;;17.54;81.87
48630;BME280;34426;52.180;4.462;2022-07-29T07:27:46;150336.13;;;17.55;81.86
48630;BME280;34426;52.180;4.462;2022-07-29T07:30:14;150334.88;;;17.55;81.82
48630;BME280;34426;52.180;4.462;2022-07-29T07:32:42;150313.59;;;17.46;82.04
48630;BME280;34426;52.180;4.462;2022-07-29T07:35:10;150358.72;;;17.64;81.22
48630;BME280;34426;52.180;4.462;2022-07-29T07:37:40;150338.66;;;17.56;82.06
48630;BME280;34426;52.180;4.462;2022-07-29T07:40:08;150351.19;;;17.61;81.99
48630;BME280;34426;52.180;4.462;2022-07-29T07:42:36;150338.66;;;17.56;82.79
48630;BME280;34426;52.180;4.462;2022-07-29T07:45:04;150357.44;;;17.64;83.38
48630;BME280;34426;52.180;4.462;2022-07-29T07:47:32;150371.25;;;17.70;82.69
48630;BME280;34426;52.180;4.462;2022-07-29T07:49:59;150380.00;;;17.73;80.93
48630;BME280;34426;52.180;4.462;2022-07-29T07:52:26;150377.47;;;17.72;80.73
48630;BME280;34426;52.180;4.462;2022-07-29T07:54:56;150423.88;;;17.91;81.00
48630;BME280;34426;52.180;4.462;2022-07-29T07:57:23;150455.22;;;18.04;81.00
48630;BME280;34426;52.180;4.462;2022-07-29T07:59:52;150451.47;;;18.02;81.10
48630;BME280;34426;52.180;4.462;2022-07-29T08:02:20;150500.31;;;18.23;81.46
48630;BME280;34426;52.180;4.462;2022-07-29T08:04:51;150540.44;;;18.39;81.27
48630;BME280;34426;52.180;4.462;2022-07-29T08:07:19;150569.28;;;18.51;78.88
48630;BME280;34426;52.180;4.462;2022-07-29T08:09:47;150552.97;;;18.44;78.45
48630;BME280;34426;52.180;4.462;2022-07-29T08:12:16;150614.38;;;18.69;78.51
48630;BME280;34426;52.180;4.462;2022-07-29T08:14:44;150619.41;;;18.71;76.28
48630;BME280;34426;52.180;4.462;2022-07-29T08:17:11;150655.78;;;18.86;76.28
48630;BME280;34426;52.180;4.462;2022-07-29T08:19:39;150729.78;;;19.17;73.94
48630;BME280;34426;52.180;4.462;2022-07-29T08:22:07;150733.56;;;19.18;75.32
48630;BME280;34426;52.180;4.462;2022-07-29T08:24:34;150786.19;;;19.40;73.50
48630;BME280;34426;52.180;4.462;2022-07-29T08:27:01;150881.59;;;19.79;71.55
48630;BME280;34426;52.180;4.462;2022-07-29T08:29:31;150912.91;;;19.92;71.36
48630;BME280;34426;52.180;4.462;2022-07-29T08:31:58;150910.44;;;19.91;70.90
48630;BME280;34426;52.180;4.462;2022-07-29T08:34:25;150993.22;;;20.24;70.62
48630;BME280;34426;52.180;4.462;2022-07-29T08:36:53;150979.44;;;20.19;68.54
48630;BME280;34426;52.180;4.462;2022-07-29T08:39:21;151045.94;;;20.46;67.72
48630;BME280;34426;52.180;4.462;2022-07-29T08:41:51;151017.06;;;20.34;67.20
48630;BME280;34426;52.180;4.462;2022-07-29T08:44:19;151038.41;;;20.43;67.82
48630;BME280;34426;52.180;4.462;2022-07-29T08:46:49;151079.81;;;20.60;66.62
48630;BME280;34426;52.180;4.462;2022-07-29T08:49:20;151132.56;;;20.81;65.55
48630;BME280;34426;52.180;4.462;2022-07-29T08:51:47;151168.97;;;20.96;64.34
48630;BME280;34426;52.180;4.462;2022-07-29T08:54:17;151123.78;;;20.78;65.17
48630;BME280;34426;52.180;4.462;2022-07-29T08:56:48;151197.84;;;21.08;64.79
48630;BME280;34426;52.180;4.462;2022-07-29T08:59:17;151157.66;;;20.92;63.90
48630;BME280;34426;52.180;4.462;2022-07-29T09:01:50;151220.44;;;21.17;65.01
48630;BME280;34426;52.180;4.462;2022-07-29T09:04:20;151230.50;;;21.22;63.98
48630;BME280;34426;52.180;4.462;2022-07-29T09:06:49;151216.66;;;21.16;64.65
48630;BME280;34426;52.180;4.462;2022-07-29T09:09:18;151220.44;;;21.17;65.12
48630;BME280;34426;52.180;4.462;2022-07-29T09:11:45;151195.31;;;21.07;63.97
48630;BME280;34426;52.180;4.462;2022-07-29T09:14:19;151173.97;;;20.98;64.06
48630;BME280;34426;52.180;4.462;2022-07-29T09:16:52;151199.09;;;21.09;66.30
48630;BME280;34426;52.180;4.462;2022-07-29T09:19:25;151167.72;;;20.96;65.51
48630;BME280;34426;52.180;4.462;2022-07-29T09:21:55;151168.97;;;20.96;64.87
48630;BME280;34426;52.180;4.462;2022-07-29T09:24:23;151166.44;;;20.95;62.24
48630;BME280;34426;52.180;4.462;2022-07-29T09:26:52;151132.56;;;20.81;63.31
48630;BME280;34426;52.180;4.462;2022-07-29T09:29:22;151127.53;;;20.79;64.08
48630;BME280;34426;52.180;4.462;2022-07-29T09:31:53;151132.56;;;20.81;64.73
48630;BME280;34426;52.180;4.462;2022-07-29T09:34:24;151157.66;;;20.92;64.15
48630;BME280;34426;52.180;4.462;2022-07-29T09:36:54;151175.28;;;20.99;63.30
48630;BME280;34426;52.180;4.462;2022-07-29T09:39:29;151145.09;;;20.87;63.47
48630;BME280;34426;52.180;4.462;2022-07-29T09:41:59;151162.72;;;20.94;60.80
48630;BME280;34426;52.180;4.462;2022-07-29T09:44:41;151181.53;;;21.01;60.32
48630;BME280;34426;52.180;4.462;2022-07-29T09:47:10;151130.06;;;20.80;61.12
48630;BME280;34426;52.180;4.462;2022-07-29T09:49:51;151147.63;;;20.88;62.64
48630;BME280;34426;52.180;4.462;2022-07-29T09:52:20;151179.00;;;21.00;62.24
48630;BME280;34426;52.180;4.462;2022-07-29T09:54:48;151232.97;;;21.23;62.46
48630;BME280;34426;52.180;4.462;2022-07-29T09:57:25;151285.72;;;21.44;61.25
48630;BME280;34426;52.180;4.462;2022-07-29T09:59:58;151317.16;;;21.57;60.49
48630;BME280;34426;52.180;4.462;2022-07-29T10:02:35;151341.03;;;21.67;59.03
48630;BME280;34426;52.180;4.462;2022-07-29T10:05:04;151368.63;;;21.78;59.97
48630;BME280;34426;52.180;4.462;2022-07-29T10:07:45;151401.28;;;21.91;56.97
48630;BME280;34426;52.180;4.462;2022-07-29T10:10:35;151432.72;;;22.04;57.15
48630;BME280;34426;52.180;4.462;2022-07-29T10:13:05;151436.44;;;22.06;57.99
48630;BME280;34426;52.180;4.462;2022-07-29T10:15:33;151506.84;;;22.35;57.51
48630;BME280;34426;52.180;4.462;2022-07-29T10:18:00;151544.53;;;22.50;57.27
48630;BME280;34426;52.180;4.462;2022-07-29T10:20:27;151555.84;;;22.55;60.24
48630;BME280;34426;52.180;4.462;2022-07-29T10:22:53;151588.53;;;22.68;59.30
48630;BME280;34426;52.180;4.462;2022-07-29T10:25:21;151619.91;;;22.81;54.74
48630;BME280;34426;52.180;4.462;2022-07-29T10:27:47;151670.19;;;23.01;58.13
48630;BME280;34426;52.180;4.462;2022-07-29T10:30:15;151646.28;;;22.92;53.44
48630;BME280;34426;52.180;4.462;2022-07-29T10:32:57;151697.84;;;23.13;52.87
48630;BME280;34426;52.180;4.462;2022-07-29T10:35:53;151735.56;;;23.28;55.18
48630;BME280;34426;52.180;4.462;2022-07-29T10:38:44;151760.69;;;23.38;49.99
48630;BME280;34426;52.180;4.462;2022-07-29T10:41:33;151744.34;;;23.32;55.81
48630;BME280;34426;52.180;4.462;2022-07-29T10:44:13;151780.81;;;23.47;53.23
48630;BME280;34426;52.180;4.462;2022-07-29T10:46:42;151809.75;;;23.58;51.24
48630;BME280;34426;52.180;4.462;2022-07-29T10:49:09;151858.78;;;23.78;49.75
48630;BME280;34426;52.180;4.462;2022-07-29T10:52:02;151853.72;;;23.76;51.75
48630;BME280;34426;52.180;4.462;2022-07-29T10:54:46;151886.47;;;23.90;52.74
48630;BME280;34426;52.180;4.462;2022-07-29T10:57:15;151922.94;;;24.05;51.72
48630;BME280;34426;52.180;4.462;2022-07-29T10:59:44;151983.28;;;24.29;54.82
48630;BME280;34426;52.180;4.462;2022-07-29T11:02:44;152003.41;;;24.37;51.60
48630;BME280;34426;52.180;4.462;2022-07-29T11:05:13;151987.06;;;24.31;51.16
48630;BME280;34426;52.180;4.462;2022-07-29T11:08:18;151871.41;;;23.84;51.56
48630;BME280;34426;52.180;4.462;2022-07-29T11:10:46;151851.22;;;23.75;57.70
48630;BME280;34426;52.180;4.462;2022-07-29T11:13:47;151824.84;;;23.65;52.62
48630;BME280;34426;52.180;4.462;2022-07-29T11:16:15;151799.69;;;23.54;54.13
48630;BME280;34426;52.180;4.462;2022-07-29T11:21:46;151878.91;;;23.87;52.15
48630;BME280;34426;52.180;4.462;2022-07-29T11:24:16;151787.13;;;23.49;52.49
48630;BME280;34426;52.180;4.462;2022-07-29T11:26:44;151867.63;;;23.82;54.27
48630;BME280;34426;52.180;4.462;2022-07-29T11:29:19;151911.59;;;24.00;53.31
48630;BME280;34426;52.180;4.462;2022-07-29T11:31:49;151905.34;;;23.97;53.50
48630;BME280;34426;52.180;4.462;2022-07-29T11:34:20;151901.56;;;23.96;57.18
48630;BME280;34426;52.180;4.462;2022-07-29T11:37:20;151980.75;;;24.28;56.97
48630;BME280;34426;52.180;4.462;2022-07-29T11:40:08;151939.28;;;24.11;52.42
48630;BME280;34426;52.180;4.462;2022-07-29T11:42:45;151966.94;;;24.23;54.32
48630;BME280;34426;52.180;4.462;2022-07-29T11:45:13;152003.41;;;24.37;52.11
48630;BME280;34426;52.180;4.462;2022-07-29T11:47:41;151966.94;;;24.23;53.98
48630;BME280;34426;52.180;4.462;2022-07-29T11:50:09;151982.03;;;24.29;52.57
48630;BME280;34426;52.180;4.462;2022-07-29T11:52:37;152029.81;;;24.48;51.82
48630;BME280;34426;52.180;4.462;2022-07-29T11:55:05;152081.41;;;24.69;52.23
48630;BME280;34426;52.180;4.462;2022-07-29T11:57:35;152106.56;;;24.80;54.12
48630;BME280;34426;52.180;4.462;2022-07-29T12:00:02;152110.34;;;24.81;49.75
48630;BME280;34426;52.180;4.462;2022-07-29T12:02:38;152130.47;;;24.89;50.12
48630;BME280;34426;52.180;4.462;2022-07-29T12:05:04;152115.38;;;24.83;49.29
48630;BME280;34426;52.180;4.462;2022-07-29T12:07:33;152036.13;;;24.51;49.23
48630;BME280;34426;52.180;4.462;2022-07-29T12:10:01;151931.75;;;24.08;49.40
48630;BME280;34426;52.180;4.462;2022-07-29T12:12:28;151932.97;;;24.09;51.25
48630;BME280;34426;52.180;4.462;2022-07-29T12:15:10;152010.97;;;24.41;50.93
48630;BME280;34426;52.180;4.462;2022-07-29T12:17:36;152032.34;;;24.49;51.07
48630;BME280;34426;52.180;4.462;2022-07-29T12:22:46;152021.00;;;24.45;50.51
48630;BME280;34426;52.180;4.462;2022-07-29T12:25:13;152086.44;;;24.71;51.71
48630;BME280;34426;52.180;4.462;2022-07-29T12:27:46;152028.56;;;24.48;50.39
48630;BME280;34426;52.180;4.462;2022-07-29T12:30:19;151982.03;;;24.29;49.20
48630;BME280;34426;52.180;4.462;2022-07-29T12:32:47;151946.78;;;24.14;50.15
48630;BME280;34426;52.180;4.462;2022-07-29T12:35:16;152022.25;;;24.45;51.77
48630;BME280;34426;52.180;4.462;2022-07-29T12:37:46;152106.56;;;24.80;53.59
48630;BME280;34426;52.180;4.462;2022-07-29T12:40:15;152076.38;;;24.67;49.57
48630;BME280;34426;52.180;4.462;2022-07-29T12:43:08;152182.06;;;25.10;48.38
48630;BME280;34426;52.180;4.462;2022-07-29T12:45:36;152227.41;;;25.29;47.77
48630;BME280;34426;52.180;4.462;2022-07-29T12:48:04;152284.00;;;25.52;46.80
48630;BME280;34426;52.180;4.462;2022-07-29T12:53:15;152387.28;;;25.94;45.91
48630;BME280;34426;52.180;4.462;2022-07-29T12:55:47;152363.28;;;25.84;45.14
48630;BME280;34426;52.180;4.462;2022-07-29T12:58:33;152529.47;;;26.52;43.93
48630;BME280;34426;52.180;4.462;2022-07-29T13:01:11;152590.00;;;26.77;44.04
48630;BME280;34426;52.180;4.462;2022-07-29T13:03:46;152746.19;;;27.41;43.11
48630;BME280;34426;52.180;4.462;2022-07-29T13:06:44;152848.22;;;27.82;41.64
48630;BME280;34426;52.180;4.462;2022-07-29T13:09:13;152911.25;;;28.08;42.42
48630;BME280;34426;52.180;4.462;2022-07-29T13:11:41;152994.38;;;28.42;39.36
48630;BME280;34426;52.180;4.462;2022-07-29T13:14:29;153060.00;;;28.69;38.59
48630;BME280;34426;52.180;4.462;2022-07-29T13:17:07;153158.28;;;29.09;38.47
48630;BME280;34426;52.180;4.462;2022-07-29T13:19:38;153126.75;;;28.96;38.77